Time;durP1;ratioP1;P1;durP2;ratioP2;P2;SDS_P1;SDS_P2;PMS_P1;PMS_P2;Temp;Humidity;BMP_temperature;BMP_pressure;BME280_temperature;BME280_humidity;BME280_pressure;Samples;Min_cycle;Max_cycle;Signal;HPM_P1;HPM_P2
2021/05/31 00:01:30;;;;;;;40.03;20.38;;;12.60;99.90;;;;;;4867876;29;20049;-90
2021/05/31 00:04:22;;;;;;;34.70;18.58;;;12.60;99.90;;;;;;4872975;29;20056;-92
2021/05/31 00:07:19;;;;;;;35.78;16.73;;;12.60;99.90;;;;;;4886901;29;20052;-91
2021/05/31 00:10:10;;;;;;;35.80;19.23;;;12.50;99.90;;;;;;4873705;29;20162;-91
2021/05/31 00:12:47;;;;;;;36.95;19.38;;;11.80;99.90;;;;;;4857081;29;20063;-92
2021/05/31 00:15:39;;;;;;;42.13;18.20;;;12.50;99.90;;;;;;4865094;29;20429;-91
2021/05/31 00:18:16;;;;;;;37.38;19.08;;;12.50;99.90;;;;;;4878377;29;20049;-92
2021/05/31 00:20:53;;;;;;;37.13;18.63;;;12.70;99.90;;;;;;4886756;29;20060;-91
2021/05/31 00:23:53;;;;;;;48.33;18.83;;;12.60;99.90;;;;;;4868800;29;20049;-90
2021/05/31 00:27:09;;;;;;;41.22;21.27;;;12.60;99.90;;;;;;4867234;29;20053;-91
2021/05/31 00:29:42;;;;;;;43.55;20.63;;;12.70;99.90;;;;;;4830015;29;20072;-91
2021/05/31 00:32:51;;;;;;;35.58;18.02;;;12.70;99.90;;;;;;4894099;29;20049;-91
2021/05/31 00:35:28;;;;;;;38.42;19.15;;;12.80;99.90;;;;;;4871087;29;20053;-91
2021/05/31 00:37:58;;;;;;;42.75;21.52;;;12.80;99.90;;;;;;4863269;29;20057;-91
2021/05/31 00:40:41;;;;;;;37.45;20.52;;;13.00;99.90;;;;;;4860579;29;20064;-91
2021/05/31 00:43:38;;;;;;;40.97;20.30;;;12.70;99.90;;;;;;4837933;29;20058;-92
2021/05/31 00:46:14;;;;;;;39.75;19.75;;;12.60;99.90;;;;;;4856727;29;20072;-90
2021/05/31 00:49:35;;;;;;;44.00;20.85;;;12.60;99.90;;;;;;4874565;29;20056;-90
2021/05/31 00:52:12;;;;;;;38.95;20.52;;;12.50;99.90;;;;;;4836052;29;20500;-91
2021/05/31 00:54:57;;;;;;;42.10;20.65;;;12.50;99.90;;;;;;4846417;29;20053;-92
2021/05/31 00:57:37;;;;;;;34.40;21.13;;;12.50;99.90;;;;;;4842747;29;20057;-91
2021/05/31 01:00:09;;;;;;;46.85;21.38;;;11.00;99.90;;;;;;4859133;29;20061;-90
2021/05/31 01:02:40;;;;;;;50.20;25.60;;;12.10;99.90;;;;;;4870346;29;20054;-91
2021/05/31 01:05:12;;;;;;;39.33;20.98;;;12.40;99.90;;;;;;4823721;29;20041;-91
2021/05/31 01:07:49;;;;;;;42.10;22.85;;;12.40;99.90;;;;;;4864702;29;20058;-91
2021/05/31 01:10:39;;;;;;;52.33;22.88;;;12.40;99.90;;;;;;4859527;29;20049;-91
2021/05/31 01:13:45;;;;;;;35.30;20.60;;;12.40;99.90;;;;;;4861905;29;20061;-91
2021/05/31 01:17:06;;;;;;;38.90;22.20;;;12.40;99.90;;;;;;4863855;29;20057;-90
2021/05/31 01:20:23;;;;;;;41.53;18.75;;;12.50;99.90;;;;;;4896077;29;20056;-91
2021/05/31 01:23:12;;;;;;;38.72;22.63;;;12.20;99.90;;;;;;4897330;29;20067;-91
2021/05/31 01:26:02;;;;;;;36.75;20.70;;;12.50;99.90;;;;;;4858138;29;20060;-90
2021/05/31 01:29:08;;;;;;;37.28;19.85;;;12.10;99.90;;;;;;4892700;29;20065;-91
2021/05/31 01:31:48;;;;;;;41.78;23.15;;;12.50;99.90;;;;;;4890944;29;20106;-91
2021/05/31 01:34:38;;;;;;;39.95;20.50;;;12.50;99.90;;;;;;4852736;29;20056;-90
2021/05/31 01:37:15;;;;;;;45.28;21.88;;;12.50;99.90;;;;;;4881296;29;20041;-91
2021/05/31 01:40:04;;;;;;;44.70;22.33;;;12.50;99.90;;;;;;4867289;29;20057;-91
2021/05/31 01:42:36;;;;;;;48.58;23.20;;;12.40;99.90;;;;;;4865323;29;20067;-91
2021/05/31 01:45:23;;;;;;;35.80;21.17;;;12.40;99.90;;;;;;4892753;29;20071;-90
2021/05/31 01:48:09;;;;;;;53.42;21.77;;;12.40;99.90;;;;;;4866512;29;20060;-91
2021/05/31 01:50:59;;;;;;;44.03;24.23;;;12.30;99.90;;;;;;4869975;29;20075;-91
2021/05/31 01:53:44;;;;;;;35.92;21.70;;;12.30;99.90;;;;;;4861956;29;20052;-90
2021/05/31 01:56:29;;;;;;;39.17;19.63;;;12.30;99.90;;;;;;4840562;29;20371;-91
2021/05/31 01:58:57;;;;;;;41.08;21.02;;;12.30;99.90;;;;;;4860836;29;20053;-91
2021/05/31 02:01:32;;;;;;;44.80;20.45;;;12.20;99.90;;;;;;4877480;29;20049;-91
2021/05/31 02:04:17;;;;;;;46.78;23.58;;;12.20;99.90;;;;;;4898289;29;20057;-91
2021/05/31 02:06:45;;;;;;;36.72;20.17;;;11.10;99.90;;;;;;4865423;29;20056;-91
2021/05/31 02:09:28;;;;;;;53.00;19.00;;;12.20;99.90;;;;;;4854321;29;20049;-91
2021/05/31 02:12:14;;;;;;;37.65;19.35;;;12.20;99.90;;;;;;4860250;29;20060;-91
2021/05/31 02:14:50;;;;;;;44.03;20.27;;;12.20;99.90;;;;;;4873413;29;20143;-90
2021/05/31 02:17:42;;;;;;;38.78;21.10;;;12.20;99.90;;;;;;4874046;29;20049;-90
2021/05/31 02:20:27;;;;;;;54.95;24.05;;;12.20;99.90;;;;;;4851448;29;20053;-91
2021/05/31 02:23:01;;;;;;;40.60;19.52;;;12.10;99.90;;;;;;4890030;29;20057;-91
2021/05/31 02:25:31;;;;;;;35.20;18.95;;;12.30;99.90;;;;;;4859824;29;20059;-90
2021/05/31 02:28:14;;;;;;;35.38;18.60;;;12.10;99.90;;;;;;4894490;29;20057;-90
2021/05/31 02:30:58;;;;;;;40.42;20.83;;;12.00;99.90;;;;;;4867474;29;20053;-91
2021/05/31 02:33:29;;;;;;;31.33;15.70;;;12.00;99.90;;;;;;4842963;29;20059;-90
2021/05/31 02:36:01;;;;;;;35.70;17.45;;;12.00;99.90;;;;;;4867123;29;20055;-91
2021/05/31 02:38:44;;;;;;;41.72;20.13;;;13.00;99.90;;;;;;4847403;29;20060;-90
2021/05/31 02:41:28;;;;;;;40.90;21.40;;;12.00;99.90;;;;;;4859040;29;20407;-90
2021/05/31 02:44:10;;;;;;;35.72;18.00;;;12.00;99.90;;;;;;4858682;29;20056;-92
2021/05/31 02:46:51;;;;;;;39.40;17.85;;;12.00;99.90;;;;;;4872914;29;20057;-90
2021/05/31 02:49:35;;;;;;;37.55;19.92;;;12.00;99.90;;;;;;4858412;29;20044;-90
2021/05/31 02:52:05;;;;;;;40.17;19.45;;;11.90;99.90;;;;;;4885127;29;20055;-91
2021/05/31 02:54:36;;;;;;;39.22;23.20;;;11.90;99.90;;;;;;4871945;29;20063;-89
2021/05/31 02:57:11;;;;;;;39.33;21.13;;;11.90;99.90;;;;;;4858286;29;20165;-90
2021/05/31 02:59:48;;;;;;;45.30;20.25;;;11.90;99.90;;;;;;4863918;29;20437;-91
2021/05/31 03:02:30;;;;;;;41.88;18.88;;;11.80;99.90;;;;;;4876295;29;20045;-90
2021/05/31 03:05:16;;;;;;;41.42;19.58;;;12.20;99.90;;;;;;4852432;29;20052;-91
2021/05/31 03:07:59;;;;;;;43.00;18.58;;;11.80;99.90;;;;;;4870761;29;20076;-90
2021/05/31 03:10:55;;;;;;;35.55;18.55;;;11.80;99.90;;;;;;4863640;29;20053;-89
2021/05/31 03:13:38;;;;;;;33.22;20.65;;;11.70;99.90;;;;;;4850046;29;20056;-91
2021/05/31 03:16:21;;;;;;;35.45;18.38;;;11.70;99.90;;;;;;4875458;29;20057;-90
2021/05/31 03:18:51;;;;;;;;;;;11.70;99.90;;;;;;4853992;29;20414;-89
2021/05/31 03:21:22;;;;;;;35.95;18.20;;;10.90;99.90;;;;;;4853409;29;19924;-90
2021/05/31 03:23:51;;;;;;;32.70;18.63;;;11.70;99.90;;;;;;4839475;29;20065;-90
2021/05/31 03:26:33;;;;;;;38.28;17.45;;;11.50;99.90;;;;;;4836895;29;20053;-90
2021/05/31 03:29:16;;;;;;;33.50;17.75;;;11.40;99.90;;;;;;4864407;29;20053;-90
2021/05/31 03:31:44;;;;;;;33.63;18.38;;;11.70;99.90;;;;;;4853767;29;20058;-89
2021/05/31 03:34:21;;;;;;;40.30;20.25;;;11.70;99.90;;;;;;4861221;29;20061;-90
2021/05/31 03:37:03;;;;;;;40.70;18.52;;;11.60;99.90;;;;;;4849855;29;20052;-90
2021/05/31 03:39:47;;;;;;;38.75;18.42;;;11.60;99.90;;;;;;4844386;29;20090;-90
2021/05/31 03:42:32;;;;;;;35.72;21.05;;;11.60;99.90;;;;;;4855644;29;20061;-90
2021/05/31 03:45:14;;;;;;;45.75;20.48;;;11.60;99.90;;;;;;4861586;29;20057;-89
2021/05/31 03:47:55;;;;;;;47.20;20.35;;;11.60;99.90;;;;;;4857133;29;20053;-90
2021/05/31 03:50:37;;;;;;;39.65;19.52;;;11.60;99.90;;;;;;4876275;29;20061;-90
2021/05/31 03:53:06;;;;;;;50.22;21.45;;;11.60;99.90;;;;;;4881538;29;20061;-89
2021/05/31 03:55:39;;;;;;;36.83;19.30;;;11.60;99.90;;;;;;4881285;29;20052;-90
2021/05/31 03:58:17;;;;;;;44.22;19.80;;;11.50;99.90;;;;;;4888054;29;20045;-89
2021/05/31 04:01:00;;;;;;;41.25;20.33;;;11.60;99.90;;;;;;4847635;29;20092;-90
2021/05/31 04:03:43;;;;;;;47.17;20.95;;;11.10;99.90;;;;;;4827888;29;20066;-90
2021/05/31 04:11:52;;;;;;;38.17;20.13;;;11.50;99.90;;;;;;4857742;29;20064;-89
2021/05/31 04:14:21;;;;;;;42.38;20.08;;;11.50;99.90;;;;;;4845131;29;20049;-90
2021/05/31 04:16:56;;;;;;;36.72;19.45;;;11.60;99.90;;;;;;4843666;29;20056;-90
2021/05/31 04:19:27;;;;;;;40.45;19.70;;;11.60;99.90;;;;;;4831652;29;20057;-91
2021/05/31 04:21:56;;;;;;;40.33;21.73;;;11.70;99.90;;;;;;4841609;29;20049;-90
2021/05/31 04:24:27;;;;;;;46.15;20.17;;;11.70;99.90;;;;;;4887083;29;20053;-90
2021/05/31 04:27:12;;;;;;;42.92;21.98;;;11.60;99.90;;;;;;4858564;29;20054;-91
2021/05/31 04:29:40;;;;;;;44.38;21.65;;;11.70;99.90;;;;;;4875145;29;20049;-89
2021/05/31 04:32:13;;;;;;;46.13;20.38;;;11.60;99.90;;;;;;4858543;29;20033;-89
2021/05/31 04:34:53;;;;;;;38.67;20.98;;;11.50;99.90;;;;;;4843259;29;20065;-89
2021/05/31 04:37:21;;;;;;;47.67;21.73;;;11.60;99.90;;;;;;4839013;29;20054;-90
2021/05/31 04:39:50;;;;;;;41.25;20.45;;;11.60;99.90;;;;;;4866934;29;20057;-89
2021/05/31 04:42:19;;;;;;;41.15;21.00;;;11.60;99.90;;;;;;4850004;29;20053;-90
2021/05/31 04:44:54;;;;;;;44.33;22.50;;;11.60;99.90;;;;;;4829100;29;20049;-91
2021/05/31 04:47:26;;;;;;;43.20;21.77;;;11.60;99.90;;;;;;4839038;29;20058;-91
2021/05/31 04:49:55;;;;;;;41.92;22.00;;;11.60;99.90;;;;;;4836620;29;20060;-90
2021/05/31 04:52:23;;;;;;;43.15;23.08;;;11.60;99.90;;;;;;4841453;29;20061;-89
2021/05/31 04:54:52;;;;;;;46.90;23.85;;;12.10;99.90;;;;;;4856601;29;20333;-91
2021/05/31 04:57:21;;;;;;;50.95;21.55;;;11.70;99.90;;;;;;4876127;29;20130;-90
2021/05/31 04:59:50;;;;;;;42.05;19.38;;;12.20;99.90;;;;;;4851669;29;20053;-90
2021/05/31 05:02:18;;;;;;;50.60;21.98;;;11.50;99.90;;;;;;4852647;29;20065;-90
2021/05/31 05:04:47;;;;;;;36.63;21.92;;;11.60;99.90;;;;;;4860513;29;20077;-90
2021/05/31 05:07:15;;;;;;;43.72;21.73;;;11.60;99.90;;;;;;4851555;29;20065;-91
2021/05/31 05:09:43;;;;;;;48.50;22.08;;;11.60;99.90;;;;;;4851786;29;20061;-91
2021/05/31 05:12:11;;;;;;;45.67;20.42;;;11.60;99.90;;;;;;4868952;29;20049;-90
2021/05/31 05:14:40;;;;;;;47.53;23.25;;;11.60;99.90;;;;;;4857985;29;20057;-90
2021/05/31 05:17:08;;;;;;;56.63;26.98;;;11.70;99.90;;;;;;4861888;29;20057;-91
2021/05/31 05:19:40;;;;;;;50.63;22.52;;;11.70;99.90;;;;;;4877942;29;20057;-91
2021/05/31 05:22:08;;;;;;;51.22;24.40;;;10.90;99.90;;;;;;4877095;29;20048;-91
2021/05/31 05:24:37;;;;;;;46.25;24.25;;;11.60;99.90;;;;;;4867690;29;20048;-90
2021/05/31 05:27:07;;;;;;;;;;;11.70;99.90;;;;;;4871480;29;20045;-91
2021/05/31 05:29:35;;;;;;;55.38;24.40;;;10.70;99.90;;;;;;4867670;29;19927;-90
2021/05/31 05:32:06;;;;;;;46.75;21.23;;;11.70;99.90;;;;;;4885030;29;20048;-90
2021/05/31 05:34:34;;;;;;;60.53;27.48;;;11.70;99.90;;;;;;4850750;29;20057;-90
2021/05/31 05:37:07;;;;;;;56.28;25.63;;;11.50;99.90;;;;;;4882342;29;20057;-90
2021/05/31 05:42:30;;;;;;;55.83;26.95;;;11.80;99.90;;;;;;4853266;29;20053;-91
2021/05/31 05:45:16;;;;;;;55.85;25.67;;;11.60;99.90;;;;;;4871132;29;20053;-90
2021/05/31 05:47:47;;;;;;;55.47;28.30;;;11.70;99.90;;;;;;4836388;29;20064;-91
2021/05/31 05:50:19;;;;;;;58.65;29.35;;;11.30;99.90;;;;;;4833254;29;20064;-90
2021/05/31 05:52:48;;;;;;;55.63;24.90;;;12.00;99.90;;;;;;4868585;29;20057;-90
2021/05/31 05:55:17;;;;;;;59.90;28.52;;;11.80;99.90;;;;;;4871583;29;20053;-92
2021/05/31 05:57:45;;;;;;;58.35;28.52;;;11.80;99.90;;;;;;4850891;29;20778;-91
2021/05/31 06:00:18;;;;;;;56.42;24.67;;;11.80;99.90;;;;;;4832186;29;20049;-91
2021/05/31 06:02:50;;;;;;;71.13;27.60;;;11.90;99.90;;;;;;4832486;29;20053;-90
2021/05/31 06:05:20;;;;;;;67.13;27.25;;;11.90;99.90;;;;;;4818811;29;20053;-90
2021/05/31 06:07:51;;;;;;;64.90;26.27;;;11.90;99.90;;;;;;4849840;29;20047;-90
2021/05/31 06:10:20;;;;;;;62.47;27.30;;;11.90;99.90;;;;;;4866290;29;20033;-91
2021/05/31 06:12:50;;;;;;;68.50;28.67;;;12.40;99.90;;;;;;4856826;29;20068;-89
2021/05/31 06:15:20;;;;;;;70.47;31.20;;;12.00;99.90;;;;;;4853564;29;20048;-90
2021/05/31 06:17:48;;;;;;;61.50;28.70;;;12.00;99.90;;;;;;4854613;29;20049;-89
2021/05/31 06:20:21;;;;;;;60.83;27.85;;;12.10;99.90;;;;;;4863212;29;20375;-90
2021/05/31 06:22:50;;;;;;;62.13;27.63;;;12.50;99.90;;;;;;4852111;29;20060;-90
2021/05/31 06:25:32;;;;;;;71.80;27.93;;;12.20;99.90;;;;;;4871326;29;20062;-92
2021/05/31 06:28:02;;;;;;;57.90;25.20;;;11.70;99.90;;;;;;4884499;29;20303;-91
2021/05/31 06:30:41;;;;;;;56.73;29.23;;;12.20;99.90;;;;;;4843775;29;20079;-90
2021/05/31 06:33:13;;;;;;;52.67;29.00;;;12.30;99.90;;;;;;4872884;29;20299;-92
2021/05/31 06:35:42;;;;;;;56.95;28.02;;;12.30;99.90;;;;;;4873031;29;20049;-92
2021/05/31 06:38:10;;;;;;;62.33;29.92;;;12.30;99.90;;;;;;4860129;29;20454;-90
2021/05/31 06:40:44;;;;;;;63.13;25.92;;;12.30;99.90;;;;;;4880697;29;20408;-90
2021/05/31 06:43:15;;;;;;;56.13;27.77;;;12.50;99.90;;;;;;4835712;29;20049;-90
2021/05/31 06:45:43;;;;;;;63.35;29.02;;;12.30;99.90;;;;;;4848527;29;20075;-91
2021/05/31 06:48:11;;;;;;;63.72;27.70;;;12.30;99.90;;;;;;4856716;29;20056;-90
2021/05/31 06:50:46;;;;;;;56.90;26.85;;;12.40;99.90;;;;;;4874693;29;20048;-90
2021/05/31 06:53:18;;;;;;;56.08;26.20;;;12.40;99.90;;;;;;4868393;29;20049;-90
2021/05/31 06:55:47;;;;;;;61.25;28.85;;;12.40;99.90;;;;;;4851825;29;20080;-91
2021/05/31 06:58:16;;;;;;;61.28;29.70;;;12.50;99.90;;;;;;4851833;29;20072;-91
2021/05/31 07:00:47;;;;;;;65.53;33.67;;;12.50;99.90;;;;;;4851036;29;20053;-91
2021/05/31 07:03:15;;;;;;;64.38;27.95;;;12.50;99.90;;;;;;4865335;29;20496;-91
2021/05/31 07:05:43;;;;;;;60.00;26.02;;;12.60;99.90;;;;;;4879375;29;20053;-90
2021/05/31 07:08:11;;;;;;;56.22;28.55;;;12.60;99.90;;;;;;4875971;29;20056;-90
2021/05/31 07:10:39;;;;;;;72.60;27.33;;;12.60;99.90;;;;;;4871664;29;20461;-92
2021/05/31 07:13:07;;;;;;;66.28;27.35;;;12.70;99.90;;;;;;4853210;29;20053;-90
2021/05/31 07:15:35;;;;;;;56.72;27.52;;;12.80;99.90;;;;;;4883860;29;20056;-91
2021/05/31 07:18:05;;;;;;;63.28;29.20;;;12.80;99.90;;;;;;4880267;29;20056;-91
2021/05/31 07:20:33;;;;;;;53.95;27.02;;;12.90;99.90;;;;;;4877110;29;20056;-91
2021/05/31 07:23:01;;;;;;;59.58;27.30;;;12.90;99.90;;;;;;4853428;29;20053;-91
2021/05/31 07:25:29;;;;;;;55.83;26.42;;;13.00;99.90;;;;;;4865073;29;20078;-92
2021/05/31 07:27:57;;;;;;;69.18;27.17;;;13.00;99.90;;;;;;4864934;29;20319;-90
2021/05/31 07:30:26;;;;;;;58.05;29.67;;;13.10;99.90;;;;;;4877890;29;20064;-91
2021/05/31 07:32:54;;;;;;;59.33;26.92;;;13.10;99.90;;;;;;4864125;29;20064;-91
2021/05/31 07:35:23;;;;;;;52.72;24.67;;;13.80;99.90;;;;;;4866445;29;20053;-91
2021/05/31 07:37:51;;;;;;;53.08;28.58;;;13.30;99.90;;;;;;4870998;29;20061;-91
2021/05/31 07:40:19;;;;;;;59.55;24.77;;;13.40;99.90;;;;;;4841176;29;20410;-91
2021/05/31 07:42:48;;;;;;;47.92;24.58;;;13.50;99.90;;;;;;4880242;29;20068;-90
2021/05/31 07:45:19;;;;;;;58.35;27.13;;;13.50;99.90;;;;;;4872694;29;20049;-90
2021/05/31 07:47:48;;;;;;;65.65;29.60;;;13.60;99.90;;;;;;4857428;29;20063;-89
2021/05/31 07:50:20;;;;;;;49.85;24.33;;;13.60;99.90;;;;;;4863119;29;20057;-91
2021/05/31 07:52:50;;;;;;;56.67;24.48;;;13.70;99.90;;;;;;4877792;29;20065;-92
2021/05/31 07:55:19;;;;;;;53.22;26.38;;;13.70;99.90;;;;;;4870421;29;20049;-90
2021/05/31 07:57:51;;;;;;;49.97;25.33;;;13.80;99.90;;;;;;4834837;29;20068;-92
2021/05/31 08:00:29;;;;;;;47.83;25.35;;;13.80;99.90;;;;;;4869853;29;20473;-92
2021/05/31 08:03:00;;;;;;;;;;;13.90;99.90;;;;;;4872581;29;20520;-92
2021/05/31 08:05:29;;;;;;;53.53;25.23;;;14.90;99.90;;;;;;4857449;29;19928;-92
2021/05/31 08:07:57;;;;;;;48.30;25.48;;;14.20;99.90;;;;;;4886948;29;20055;-92
2021/05/31 08:10:28;;;;;;;48.13;24.67;;;14.30;99.90;;;;;;4865402;29;20056;-91
2021/05/31 08:12:56;;;;;;;49.88;25.75;;;14.40;99.90;;;;;;4848008;29;20137;-92
2021/05/31 08:15:26;;;;;;;49.15;25.05;;;14.60;99.90;;;;;;4848504;29;20053;-92
2021/05/31 08:17:55;;;;;;;46.90;23.00;;;14.70;99.90;;;;;;4835797;29;20194;-90
2021/05/31 08:20:23;;;;;;;43.33;24.30;;;13.50;99.90;;;;;;4863639;29;20061;-91
2021/05/31 08:22:51;;;;;;;44.92;23.08;;;14.90;99.90;;;;;;4815080;29;20068;-92
2021/05/31 08:25:19;;;;;;;43.25;22.67;;;15.10;99.90;;;;;;4859228;29;20049;-92
2021/05/31 08:27:47;;;;;;;37.15;20.63;;;15.30;99.90;;;;;;4828057;29;20061;-92
2021/05/31 08:30:17;;;;;;;42.05;21.88;;;15.40;99.90;;;;;;4863588;29;20057;-92
2021/05/31 08:32:47;;;;;;;42.97;21.83;;;15.50;99.90;;;;;;4855628;29;20711;-92
2021/05/31 08:35:15;;;;;;;40.20;20.50;;;15.60;99.90;;;;;;4860900;29;20298;-93
2021/05/31 08:37:43;;;;;;;49.17;20.98;;;15.70;99.90;;;;;;4829590;29;20058;-93
2021/05/31 08:40:13;;;;;;;42.03;20.20;;;15.30;99.90;;;;;;4870025;29;20061;-92
2021/05/31 08:42:42;;;;;;;39.03;19.15;;;16.00;99.90;;;;;;4845503;29;20058;-92
2021/05/31 08:45:15;;;;;;;37.55;20.23;;;16.20;99.90;;;;;;4870250;29;20535;-92
2021/05/31 08:47:47;;;;;;;51.50;19.33;;;16.40;99.90;;;;;;4846216;29;20053;-93
2021/05/31 08:50:22;;;;;;;36.22;19.85;;;16.60;99.90;;;;;;4860677;29;20057;-93
2021/05/31 08:52:52;;;;;;;44.90;20.80;;;15.50;99.90;;;;;;4854112;29;20457;-93
2021/05/31 08:55:24;;;;;;;39.05;19.10;;;16.90;99.90;;;;;;4857462;29;20056;-93
2021/05/31 08:57:55;;;;;;;40.20;19.33;;;17.00;99.90;;;;;;4848642;29;20065;-93
2021/05/31 09:00:27;;;;;;;;;;;17.10;99.90;;;;;;4848597;29;20049;-94
2021/05/31 09:02:57;;;;;;;;;;;17.20;99.90;;;;;;4849240;29;19971;-93
2021/05/31 09:05:39;;;;;;;39.20;18.25;;;17.30;99.90;;;;;;4848458;29;20010;-93
2021/05/31 09:08:18;;;;;;;40.90;17.90;;;17.40;99.90;;;;;;4861117;29;20061;-93
2021/05/31 09:10:53;;;;;;;34.28;16.70;;;17.30;99.90;;;;;;4846974;29;20073;-93
2021/05/31 09:13:29;;;;;;;26.83;16.15;;;17.30;99.90;;;;;;4831831;29;20049;-93
2021/05/31 09:16:12;;;;;;;34.03;15.93;;;17.30;99.90;;;;;;4845168;29;20061;-93
2021/05/31 09:18:57;;;;;;;30.20;16.42;;;17.30;99.90;;;;;;4845355;29;20057;-93
2021/05/31 09:21:33;;;;;;;42.08;17.92;;;17.40;99.90;;;;;;4822493;29;20410;-93
2021/05/31 09:24:08;;;;;;;32.38;16.27;;;17.50;99.90;;;;;;4858065;29;20050;-93
2021/05/31 09:26:52;;;;;;;38.28;14.93;;;17.60;99.90;;;;;;4859472;29;20057;-93
2021/05/31 09:30:00;;;;;;;26.92;16.15;;;17.70;99.90;;;;;;4858823;29;20049;-93
2021/05/31 09:33:18;;;;;;;31.95;13.25;;;17.80;99.90;;;;;;4838923;29;20062;-94
2021/05/31 09:35:46;;;;;;;27.88;12.32;;;18.00;99.90;;;;;;4821406;29;20061;-94
2021/05/31 09:38:15;;;;;;;26.20;11.98;;;18.10;99.90;;;;;;4811289;29;20058;-93
2021/05/31 09:40:54;;;;;;;27.80;11.80;;;18.20;99.90;;;;;;4813785;29;20069;-94
2021/05/31 09:43:26;;;;;;;25.20;11.37;;;18.40;99.90;;;;;;4855871;29;20050;-93
2021/05/31 09:45:57;;;;;;;41.10;13.73;;;18.50;99.90;;;;;;4815490;29;20065;-93
2021/05/31 09:48:32;;;;;;;29.65;13.32;;;18.60;99.90;;;;;;4801811;29;20050;-93
2021/05/31 09:51:02;;;;;;;24.17;12.23;;;18.50;99.90;;;;;;4825884;29;20058;-93
2021/05/31 09:53:36;;;;;;;33.38;11.73;;;18.80;99.90;;;;;;4814706;29;20061;-93
2021/05/31 09:56:15;;;;;;;25.20;12.88;;;18.90;99.90;;;;;;4840191;29;20414;-92
2021/05/31 09:58:54;;;;;;;29.33;11.00;;;19.00;99.90;;;;;;4830139;29;20546;-93
2021/05/31 10:01:42;;;;;;;28.85;10.98;;;19.00;99.90;;;;;;4846153;29;20058;-93
2021/05/31 10:09:20;;;;;;;26.77;11.55;;;19.40;99.90;;;;;;4860873;29;20060;-93
2021/05/31 10:11:50;;;;;;;31.58;12.07;;;19.50;99.90;;;;;;4865289;29;20040;-92
2021/05/31 10:14:20;;;;;;;26.77;9.98;;;19.50;99.90;;;;;;4879040;29;20051;-93
2021/05/31 10:16:50;;;;;;;24.33;10.10;;;19.70;99.90;;;;;;4893199;29;20060;-94
2021/05/31 10:19:18;;;;;;;27.00;11.55;;;19.70;99.90;;;;;;4874932;29;20061;-94
2021/05/31 10:21:49;;;;;;;27.95;11.63;;;19.80;99.90;;;;;;4861999;29;20064;-95
2021/05/31 10:24:17;;;;;;;30.92;12.05;;;19.90;99.90;;;;;;4872077;29;20064;-96
2021/05/31 10:26:45;;;;;;;26.88;11.73;;;19.90;99.90;;;;;;4888586;29;20226;-95
2021/05/31 10:29:14;;;;;;;25.38;9.63;;;20.00;99.90;;;;;;4871389;29;20061;-94
2021/05/31 10:31:45;;;;;;;25.60;10.20;;;20.20;99.90;;;;;;4870877;29;20057;-93
2021/05/31 10:34:21;;;;;;;22.23;9.65;;;20.30;99.90;;;;;;4886945;29;20049;-94
2021/05/31 10:36:51;;;;;;;27.75;10.65;;;20.30;99.90;;;;;;4881578;29;20057;-95
2021/05/31 10:39:28;;;;;;;22.60;8.90;;;20.50;99.90;;;;;;4870808;29;20049;-94
2021/05/31 10:42:06;;;;;;;18.25;8.90;;;20.60;99.90;;;;;;4869764;29;20057;-95
2021/05/31 10:44:36;;;;;;;22.35;7.35;;;20.70;99.90;;;;;;4856887;29;20400;-95
2021/05/31 10:47:13;;;;;;;19.77;9.85;;;20.90;99.90;;;;;;4887886;29;20053;-94
2021/05/31 10:49:52;;;;;;;23.10;9.90;;;21.10;99.90;;;;;;4873904;29;20056;-95
2021/05/31 10:52:20;;;;;;;20.20;7.68;;;21.30;99.90;;;;;;4850427;29;20363;-94
2021/05/31 10:54:51;;;;;;;30.77;9.75;;;21.50;99.90;;;;;;4867472;29;20049;-94
2021/05/31 10:57:21;;;;;;;21.52;9.23;;;21.60;99.90;;;;;;4854125;29;20056;-94
2021/05/31 10:59:51;;;;;;;21.58;8.63;;;21.70;99.90;;;;;;4882001;29;20413;-94
2021/05/31 11:02:28;;;;;;;23.25;8.75;;;21.90;99.90;;;;;;4878824;29;20465;-95
2021/05/31 11:05:11;;;;;;;24.25;9.23;;;22.00;99.90;;;;;;4885634;29;20052;-93
2021/05/31 11:07:41;;;;;;;23.08;8.88;;;22.20;99.90;;;;;;4887801;29;20049;-94
2021/05/31 11:10:18;;;;;;;18.50;9.40;;;22.30;99.90;;;;;;4888433;29;20052;-94
2021/05/31 11:12:55;;;;;;;16.60;8.27;;;22.30;99.90;;;;;;4869171;29;20523;-94
2021/05/31 11:15:35;;;;;;;28.73;9.88;;;22.30;99.90;;;;;;4868039;29;20046;-94
2021/05/31 11:18:05;;;;;;;22.63;8.57;;;22.40;99.90;;;;;;4892108;29;20053;-95
2021/05/31 11:20:39;;;;;;;27.25;9.35;;;22.50;99.90;;;;;;4898977;29;20135;-94
2021/05/31 11:23:07;;;;;;;24.23;8.50;;;22.60;99.90;;;;;;4849657;29;20061;-94
2021/05/31 11:25:37;;;;;;;22.58;9.40;;;22.30;99.90;;;;;;4853118;29;20056;-94
2021/05/31 11:28:08;;;;;;;20.98;7.75;;;22.60;99.90;;;;;;4894711;29;20397;-92
2021/05/31 11:30:36;;;;;;;16.73;7.38;;;22.70;99.90;;;;;;4864404;29;20065;-92
2021/05/31 11:33:05;;;;;;;23.52;8.25;;;22.80;99.90;;;;;;4865160;29;20053;-93
2021/05/31 11:35:35;;;;;;;20.67;8.13;;;23.00;99.90;;;;;;4847290;29;20049;-93
2021/05/31 11:38:05;;;;;;;18.40;7.85;;;23.10;99.90;;;;;;4848515;29;20057;-90
2021/05/31 11:40:36;;;;;;;20.15;7.70;;;23.20;99.90;;;;;;4875287;29;20059;-92
2021/05/31 11:43:07;;;;;;;18.45;7.55;;;23.30;99.90;;;;;;4876312;29;20045;-93
2021/05/31 11:45:37;;;;;;;19.55;8.48;;;23.40;99.90;;;;;;4831943;29;20501;-90
2021/05/31 11:48:07;;;;;;;21.15;7.88;;;23.40;99.90;;;;;;4878977;29;20052;-91
2021/05/31 11:50:40;;;;;;;19.67;7.65;;;23.40;99.90;;;;;;4850011;29;20068;-90
2021/05/31 11:53:10;;;;;;;16.75;7.47;;;23.50;99.90;;;;;;4834332;29;20482;-91
2021/05/31 11:55:39;;;;;;;21.17;7.38;;;23.60;99.90;;;;;;4863884;29;20052;-89
2021/05/31 11:58:08;;;;;;;15.55;8.02;;;23.70;99.90;;;;;;4849357;29;20045;-89
2021/05/31 12:00:42;;;;;;;18.42;8.13;;;23.70;99.90;;;;;;4860513;29;20055;-92
2021/05/31 12:03:22;;;;;;;19.98;7.15;;;23.80;99.90;;;;;;4867286;29;20052;-91
2021/05/31 12:05:57;;;;;;;17.98;7.05;;;23.80;98.70;;;;;;4866072;29;20056;-91
2021/05/31 12:08:26;;;;;;;16.30;7.43;;;23.90;99.30;;;;;;4867964;29;20049;-92
2021/05/31 12:10:56;;;;;;;16.70;7.63;;;24.00;98.80;;;;;;4851861;29;20075;-90
2021/05/31 12:13:29;;;;;;;14.88;8.18;;;24.00;98.50;;;;;;4869389;29;20048;-90
2021/05/31 12:15:58;;;;;;;16.85;6.57;;;24.10;97.40;;;;;;4868705;29;20520;-93
2021/05/31 12:18:27;;;;;;;13.85;6.65;;;24.10;97.40;;;;;;4852347;29;20057;-90
2021/05/31 12:21:01;;;;;;;14.23;6.53;;;24.10;96.20;;;;;;4862489;29;20088;-91
2021/05/31 12:23:29;;;;;;;13.65;5.95;;;23.50;95.20;;;;;;4861062;29;20296;-90
2021/05/31 12:26:04;;;;;;;13.43;6.60;;;24.00;94.60;;;;;;4885020;29;20071;-89
2021/05/31 12:28:39;;;;;;;16.75;6.05;;;23.90;93.90;;;;;;4884081;29;20508;-92
2021/05/31 12:31:11;;;;;;;15.82;6.22;;;23.90;93.20;;;;;;4876650;29;20053;-89
2021/05/31 12:33:41;;;;;;;9.73;4.65;;;23.90;92.90;;;;;;4882760;29;20064;-91
2021/05/31 12:36:09;;;;;;;14.85;5.55;;;24.00;91.90;;;;;;4884992;29;20060;-89
2021/05/31 12:38:39;;;;;;;10.38;4.05;;;24.00;90.90;;;;;;4853773;29;20076;-86
2021/05/31 12:41:26;;;;;;;16.55;5.50;;;24.00;90.20;;;;;;4886035;29;20044;-90
2021/05/31 12:44:05;;;;;;;9.75;4.68;;;23.90;88.50;;;;;;4873148;29;20072;-91
2021/05/31 12:46:41;;;;;;;14.52;4.97;;;23.90;86.40;;;;;;4862565;29;20050;-90
2021/05/31 12:49:12;;;;;;;14.02;4.55;;;24.00;86.60;;;;;;4887319;29;20052;-90
2021/05/31 12:51:51;;;;;;;9.65;5.00;;;24.00;87.80;;;;;;4850559;29;20053;-91
2021/05/31 12:54:19;;;;;;;12.43;4.45;;;24.20;86.20;;;;;;4848059;29;20049;-89
2021/05/31 12:56:48;;;;;;;15.50;5.65;;;24.40;87.50;;;;;;4862522;29;20079;-88
2021/05/31 12:59:16;;;;;;;13.30;5.53;;;24.50;85.70;;;;;;4875687;29;20412;-91
2021/05/31 13:01:44;;;;;;;9.55;4.95;;;24.70;84.10;;;;;;4851171;29;20084;-90
2021/05/31 13:04:28;;;;;;;13.25;4.95;;;24.90;84.20;;;;;;4864659;29;20056;-90
2021/05/31 13:06:56;;;;;;;14.55;7.10;;;25.00;81.90;;;;;;4856435;29;20057;-89
2021/05/31 13:09:25;;;;;;;13.40;4.57;;;25.10;80.10;;;;;;4874165;29;20049;-89
2021/05/31 13:12:00;;;;;;;7.22;4.05;;;25.20;80.60;;;;;;4867967;29;20072;-90
2021/05/31 13:14:30;;;;;;;7.05;4.10;;;25.20;80.90;;;;;;4854827;29;20068;-89
2021/05/31 13:17:00;;;;;;;9.98;3.85;;;25.40;78.80;;;;;;4868388;29;20288;-89
2021/05/31 13:19:31;;;;;;;10.35;3.78;;;25.60;76.40;;;;;;4868883;29;20065;-88
2021/05/31 13:22:17;;;;;;;7.25;3.63;;;25.70;77.00;;;;;;4859098;29;20060;-90
2021/05/31 13:24:50;;;;;;;8.48;4.47;;;25.90;76.00;;;;;;4873538;29;20053;-89